createdAt,value
2023-03-27T00:01:45.621Z,67.56
2023-03-27T00:04:12.312Z,67.69
2023-03-27T00:06:44.774Z,68.47
2023-03-27T00:09:11.843Z,67.92
2023-03-27T00:11:38.494Z,67.86
2023-03-27T00:14:05.142Z,68.68
2023-03-27T00:16:31.798Z,68.68
2023-03-27T00:18:58.477Z,69.00
2023-03-27T00:21:25.086Z,69.14
2023-03-27T00:23:51.712Z,67.23
2023-03-27T00:26:18.323Z,68.65
2023-03-27T00:28:44.930Z,68.52
2023-03-27T00:31:12.406Z,67.78
2023-03-27T00:33:39.177Z,68.75
2023-03-27T00:36:06.157Z,68.48
2023-03-27T00:38:32.908Z,68.86
2023-03-27T00:41:00.467Z,69.73
2023-03-27T00:43:34.324Z,69.16
2023-03-27T00:46:16.091Z,69.87
2023-03-27T00:48:43.399Z,70.26
2023-03-27T00:51:10.019Z,69.85
2023-03-27T00:53:36.657Z,70.13
2023-03-27T00:56:04.208Z,68.99
2023-03-27T00:58:37.308Z,69.27
2023-03-27T01:01:04.006Z,69.77
2023-03-27T01:03:31.313Z,70.26
2023-03-27T01:05:58.635Z,69.95
2023-03-27T01:08:25.369Z,69.21
2023-03-27T01:11:33.542Z,69.32
2023-03-27T01:14:32.001Z,70.04
2023-03-27T01:17:17.763Z,70.80
2023-03-27T01:20:00.970Z,71.68
2023-03-27T01:22:52.360Z,71.38
2023-03-27T01:25:46.757Z,70.97
2023-03-27T01:28:36.352Z,69.76
2023-03-27T01:31:23.245Z,70.44
2023-03-27T01:33:52.788Z,68.95
2023-03-27T01:36:37.505Z,68.80
2023-03-27T01:39:07.012Z,68.80
2023-03-27T01:41:44.022Z,67.32
2023-03-27T01:44:14.988Z,68.18
2023-03-27T01:46:54.560Z,68.11
2023-03-27T01:49:23.605Z,68.38
2023-03-27T01:51:56.496Z,69.41
2023-03-27T01:54:27.336Z,68.01
2023-03-27T01:56:57.863Z,68.76
2023-03-27T01:59:25.353Z,68.89
2023-03-27T02:01:55.474Z,70.21
2023-03-27T02:04:25.722Z,70.11
2023-03-27T02:06:54.708Z,70.85
2023-03-27T02:09:26.655Z,70.88
2023-03-27T02:11:58.459Z,71.25
2023-03-27T02:14:34.665Z,70.57
2023-03-27T02:17:03.404Z,70.38
2023-03-27T02:19:35.963Z,71.24
2023-03-27T02:22:02.603Z,71.19
2023-03-27T02:24:29.224Z,70.56
2023-03-27T02:27:01.124Z,70.37
2023-03-27T02:29:42.109Z,71.55
2023-03-27T02:32:19.089Z,70.76
2023-03-27T02:35:00.701Z,70.94
2023-03-27T02:37:34.467Z,71.13
2023-03-27T02:40:13.880Z,71.39
2023-03-27T02:42:49.368Z,71.27
2023-03-27T02:45:24.220Z,71.62
2023-03-27T02:47:57.046Z,72.29
2023-03-27T02:50:44.319Z,71.69
2023-03-27T02:53:11.315Z,71.68
2023-03-27T02:55:39.927Z,71.19
2023-03-27T02:58:09.285Z,70.36
2023-03-27T03:00:38.224Z,70.51
2023-03-27T03:03:19.205Z,69.55
2023-03-27T03:05:45.886Z,69.91
2023-03-27T03:08:12.724Z,69.18
2023-03-27T03:10:43.859Z,69.86
2023-03-27T03:13:10.579Z,69.95
2023-03-27T03:15:37.239Z,70.54
2023-03-27T03:18:03.928Z,70.66
2023-03-27T03:20:30.670Z,71.30
2023-03-27T03:22:57.303Z,71.89
2023-03-27T03:25:24.284Z,70.69
2023-03-27T03:27:51.066Z,70.51
2023-03-27T03:30:17.811Z,70.85
2023-03-27T03:32:44.486Z,71.12
2023-03-27T03:35:11.462Z,70.07
2023-03-27T03:37:38.111Z,70.53
2023-03-27T03:40:08.157Z,69.96
2023-03-27T03:42:34.819Z,70.18
2023-03-27T03:45:01.471Z,69.50
2023-03-27T03:47:28.176Z,70.21
2023-03-27T03:49:54.848Z,69.08
2023-03-27T03:52:21.511Z,69.23
2023-03-27T03:54:48.154Z,69.50
2023-03-27T03:57:14.892Z,69.78
2023-03-27T03:59:41.981Z,70.68
2023-03-27T04:02:08.697Z,70.25
2023-03-27T04:04:35.336Z,70.18
2023-03-27T04:07:01.989Z,69.95
2023-03-27T04:09:28.631Z,70.23
2023-03-27T04:11:55.261Z,68.20
2023-03-27T04:14:21.901Z,68.92
2023-03-27T04:16:48.530Z,69.21
2023-03-27T04:19:18.175Z,68.49
2023-03-27T04:21:44.886Z,69.02
2023-03-27T04:24:11.536Z,69.27
2023-03-27T04:26:38.173Z,68.42
2023-03-27T04:29:04.809Z,68.87
2023-03-27T04:31:31.727Z,67.96
2023-03-27T04:33:58.389Z,68.21
2023-03-27T04:36:25.116Z,67.82
2023-03-27T04:38:51.773Z,68.05
2023-03-27T04:41:18.442Z,67.94
2023-03-27T04:43:45.098Z,67.38
2023-03-27T04:46:11.871Z,67.20
2023-03-27T04:48:39.198Z,67.27
2023-03-27T04:51:06.468Z,67.57
2023-03-27T04:53:33.373Z,67.89
2023-03-27T04:56:02.595Z,68.81
2023-03-27T04:58:29.245Z,67.85
2023-03-27T05:00:56.584Z,68.52
2023-03-27T05:03:23.828Z,67.69
2023-03-27T05:05:51.559Z,67.44
2023-03-27T05:08:20.009Z,66.90
2023-03-27T05:10:46.801Z,67.88
2023-03-27T05:13:13.485Z,66.42
2023-03-27T05:15:40.111Z,66.19
2023-03-27T05:18:06.884Z,66.00
2023-03-27T05:20:36.012Z,67.48
2023-03-27T05:23:04.757Z,66.74
2023-03-27T05:25:34.202Z,67.01
2023-03-27T05:28:01.778Z,67.63
2023-03-27T05:30:28.612Z,67.11
2023-03-27T05:32:55.391Z,66.27
2023-03-27T05:35:22.852Z,66.03
2023-03-27T05:37:50.503Z,66.92
2023-03-27T05:40:17.983Z,66.83
2023-03-27T05:42:44.785Z,67.67
2023-03-27T05:45:11.963Z,67.05
2023-03-27T05:47:50.087Z,68.23
2023-03-27T05:50:17.084Z,69.55
2023-03-27T05:52:43.720Z,70.01
2023-03-27T05:55:10.501Z,69.90
2023-03-27T05:57:38.231Z,69.93
2023-03-27T06:00:06.902Z,69.87
2023-03-27T06:02:33.672Z,69.07
2023-03-27T06:05:00.345Z,69.60
2023-03-27T06:07:27.089Z,69.80
2023-03-27T06:09:53.864Z,70.05
2023-03-27T06:12:20.501Z,70.11
2023-03-27T06:14:47.161Z,70.42
2023-03-27T06:17:14.236Z,70.66
2023-03-27T06:19:40.883Z,70.42
2023-03-27T06:22:07.533Z,70.92
2023-03-27T06:24:34.373Z,69.58
2023-03-27T06:27:01.015Z,70.46
2023-03-27T06:29:27.658Z,69.82
2023-03-27T06:31:54.360Z,69.95
2023-03-27T06:34:21.188Z,69.46
2023-03-27T06:36:47.851Z,69.66
2023-03-27T06:39:14.486Z,69.60
2023-03-27T06:41:41.125Z,69.22
2023-03-27T06:44:08.022Z,69.49
2023-03-27T06:46:44.795Z,69.43
2023-03-27T06:49:12.419Z,69.39
2023-03-27T06:51:39.098Z,68.20
2023-03-27T06:54:05.758Z,70.17
2023-03-27T06:56:32.631Z,68.98
2023-03-27T06:58:59.378Z,69.23
2023-03-27T07:01:26.071Z,69.46
2023-03-27T07:03:52.763Z,67.75
2023-03-27T07:06:19.655Z,67.69
2023-03-27T07:08:47.741Z,69.67
2023-03-27T07:11:16.563Z,69.23
2023-03-27T07:13:43.511Z,69.56
2023-03-27T07:16:12.666Z,70.96
2023-03-27T07:18:39.537Z,68.02
2023-03-27T07:21:08.957Z,68.62
2023-03-27T07:23:37.371Z,68.68
2023-03-27T07:26:04.666Z,66.84
2023-03-27T07:28:31.318Z,65.93
2023-03-27T07:30:58.144Z,66.80
2023-03-27T07:33:25.205Z,67.27
2023-03-27T07:35:51.945Z,66.63
2023-03-27T07:38:18.598Z,68.01
2023-03-27T07:40:45.640Z,67.24
2023-03-27T07:43:12.290Z,66.18
2023-03-27T07:45:38.952Z,65.75
2023-03-27T07:48:10.929Z,64.67
2023-03-27T07:50:37.755Z,65.98
2023-03-27T07:53:04.651Z,65.11
2023-03-27T07:55:31.335Z,65.77
2023-03-27T07:58:02.497Z,65.02
2023-03-27T08:00:30.143Z,62.45
2023-03-27T08:03:07.490Z,64.16
2023-03-27T08:05:36.049Z,66.04
2023-03-27T08:08:02.918Z,64.86
2023-03-27T08:10:29.569Z,64.95
2023-03-27T08:12:57.211Z,65.33
2023-03-27T08:15:24.305Z,65.54
2023-03-27T08:17:51.035Z,65.65
2023-03-27T08:20:18.591Z,62.57
2023-03-27T08:22:46.222Z,62.73
2023-03-27T08:25:12.862Z,63.71
2023-03-27T08:27:39.531Z,64.51
2023-03-27T08:30:06.717Z,64.45
2023-03-27T08:32:33.379Z,65.66
2023-03-27T08:35:00.047Z,66.04
2023-03-27T08:37:26.720Z,65.59
2023-03-27T08:39:53.392Z,65.94
2023-03-27T08:42:21.256Z,66.90
2023-03-27T08:44:47.993Z,66.58
2023-03-27T08:47:27.578Z,67.46
2023-03-27T08:49:57.989Z,67.17
2023-03-27T08:52:29.754Z,67.51
2023-03-27T08:54:59.987Z,66.82
2023-03-27T08:57:26.651Z,65.65
2023-03-27T08:59:57.867Z,64.29
2023-03-27T09:02:41.968Z,64.42
2023-03-27T09:05:17.739Z,64.75
2023-03-27T09:07:50.236Z,64.67
2023-03-27T09:10:32.041Z,65.35
2023-03-27T09:12:58.674Z,64.34
2023-03-27T09:15:51.295Z,65.36
2023-03-27T09:18:40.984Z,64.73
2023-03-27T09:21:17.207Z,63.74
2023-03-27T09:23:44.764Z,63.25
2023-03-27T09:26:16.642Z,65.25
2023-03-27T09:28:49.038Z,64.37
2023-03-27T09:31:22.472Z,64.84
2023-03-27T09:33:49.170Z,63.04
2023-03-27T09:36:17.890Z,62.03
2023-03-27T09:38:46.379Z,64.43
2023-03-27T09:41:14.796Z,61.88
2023-03-27T09:43:45.265Z,62.42
2023-03-27T09:46:12.318Z,61.99
2023-03-27T09:48:42.197Z,64.19
2023-03-27T09:51:37.522Z,63.76
2023-03-27T09:54:04.249Z,62.74
2023-03-27T09:56:30.925Z,62.48
2023-03-27T09:58:57.581Z,61.60
2023-03-27T10:01:28.233Z,62.58
2023-03-27T10:03:56.568Z,61.23
2023-03-27T10:06:40.102Z,61.03
2023-03-27T10:09:26.566Z,59.66
2023-03-27T10:12:05.269Z,59.01
2023-03-27T10:14:44.901Z,58.01
2023-03-27T10:17:33.388Z,58.49
2023-03-27T10:20:10.909Z,58.39
2023-03-27T10:22:41.525Z,58.09
2023-03-27T10:25:45.477Z,58.01
2023-03-27T10:28:15.053Z,57.34
2023-03-27T10:30:41.734Z,55.46
2023-03-27T10:33:08.487Z,56.31
2023-03-27T10:35:37.123Z,55.38
2023-03-27T10:38:11.611Z,56.44
2023-03-27T10:40:39.022Z,58.68
2023-03-27T10:43:12.658Z,57.94
2023-03-27T10:46:15.351Z,58.45
2023-03-27T10:49:06.526Z,56.69
2023-03-27T10:51:47.099Z,55.31
2023-03-27T10:54:38.287Z,54.57
2023-03-27T10:57:14.969Z,55.83
2023-03-27T10:59:48.529Z,55.89
2023-03-27T11:02:17.209Z,55.78
2023-03-27T11:04:52.636Z,55.25
2023-03-27T11:07:44.650Z,55.44
2023-03-27T11:10:17.665Z,54.98
2023-03-27T11:12:59.014Z,53.99
2023-03-27T11:15:31.028Z,54.89
2023-03-27T11:18:03.061Z,55.52
2023-03-27T11:20:35.769Z,56.77
2023-03-27T11:23:15.687Z,56.51
2023-03-27T11:25:45.276Z,56.75
2023-03-27T11:28:18.808Z,56.93
2023-03-27T11:30:56.716Z,56.62
2023-03-27T11:33:32.175Z,57.47
2023-03-27T11:36:08.858Z,55.87
2023-03-27T11:38:38.076Z,55.45
2023-03-27T11:41:05.011Z,55.18
2023-03-27T11:43:31.717Z,55.62
2023-03-27T11:46:01.005Z,55.10
2023-03-27T11:49:00.041Z,55.68
2023-03-27T11:51:41.772Z,56.51
2023-03-27T11:54:20.591Z,56.43
2023-03-27T11:56:54.390Z,56.77
2023-03-27T11:59:33.549Z,56.21
2023-03-27T12:02:37.959Z,56.08
2023-03-27T12:05:36.059Z,56.43
2023-03-27T12:08:54.769Z,56.86
2023-03-27T12:11:21.599Z,56.54
2023-03-27T12:14:02.086Z,54.94
2023-03-27T12:16:48.137Z,53.31
2023-03-27T12:19:39.077Z,51.50
2023-03-27T12:22:22.751Z,52.37
2023-03-27T12:25:00.001Z,50.65
2023-03-27T12:27:38.371Z,50.94
2023-03-27T12:30:41.922Z,51.50
2023-03-27T12:33:30.415Z,52.05
2023-03-27T12:35:58.427Z,51.71
2023-03-27T12:38:27.448Z,50.73
2023-03-27T12:41:13.759Z,52.14
2023-03-27T12:43:44.754Z,52.15
2023-03-27T12:46:23.648Z,52.11
2023-03-27T12:49:08.373Z,51.42
2023-03-27T12:51:37.733Z,51.55
2023-03-27T12:54:34.760Z,50.61
2023-03-27T12:57:20.891Z,50.87
2023-03-27T12:59:57.832Z,50.57
2023-03-27T13:02:43.484Z,51.37
2023-03-27T13:05:27.457Z,51.42
2023-03-27T13:08:27.811Z,50.86
2023-03-27T13:11:10.228Z,50.13
2023-03-27T13:14:04.718Z,51.60
2023-03-27T13:16:53.071Z,50.50
2023-03-27T13:19:49.153Z,50.38
2023-03-27T13:22:18.730Z,49.97
2023-03-27T13:25:05.760Z,49.52
2023-03-27T13:27:47.993Z,51.30
2023-03-27T13:30:39.338Z,49.45
2023-03-27T13:33:28.579Z,49.79
2023-03-27T13:35:58.479Z,50.67
2023-03-27T13:38:51.678Z,49.90
2023-03-27T13:41:46.192Z,49.85
2023-03-27T13:44:30.547Z,49.76
2023-03-27T13:47:28.499Z,51.33
2023-03-27T13:50:23.215Z,50.30
2023-03-27T13:53:05.011Z,49.72
2023-03-27T13:55:56.651Z,51.16
2023-03-27T13:58:26.471Z,50.30
2023-03-27T14:01:13.732Z,50.15
2023-03-27T14:04:17.490Z,50.95
2023-03-27T14:07:08.320Z,49.76
2023-03-27T14:10:09.961Z,49.77
2023-03-27T14:13:04.113Z,49.53
2023-03-27T14:16:04.803Z,50.14
2023-03-27T14:18:37.265Z,50.21
2023-03-27T14:21:04.146Z,50.32
2023-03-27T14:23:34.274Z,50.41
2023-03-27T14:26:05.938Z,49.56
2023-03-27T14:28:34.703Z,50.75
2023-03-27T14:31:04.657Z,51.49
2023-03-27T14:33:31.331Z,49.37
2023-03-27T14:36:02.383Z,49.86
2023-03-27T14:38:33.425Z,49.20
2023-03-27T14:41:04.417Z,50.04
2023-03-27T14:43:31.098Z,47.31
2023-03-27T14:46:06.720Z,48.19
2023-03-27T14:48:34.026Z,48.74
2023-03-27T14:51:02.098Z,48.43
2023-03-27T14:53:30.842Z,49.30
2023-03-27T14:55:57.848Z,46.76
2023-03-27T14:58:24.668Z,47.51
2023-03-27T15:00:56.073Z,49.24
2023-03-27T15:03:24.452Z,49.53
2023-03-27T15:06:05.271Z,49.18
2023-03-27T15:08:36.423Z,48.89
2023-03-27T15:11:05.996Z,48.30
2023-03-27T15:13:34.064Z,49.13
2023-03-27T15:16:00.844Z,49.21
2023-03-27T15:18:31.567Z,49.18
2023-03-27T15:21:01.178Z,49.05
2023-03-27T15:23:42.327Z,47.47
2023-03-27T15:26:19.296Z,47.91
2023-03-27T15:29:07.984Z,50.10
2023-03-27T15:31:35.010Z,48.98
2023-03-27T15:34:26.296Z,50.56
2023-03-27T15:36:56.603Z,46.99
2023-03-27T15:39:23.246Z,46.31
2023-03-27T15:41:51.109Z,47.34
2023-03-27T15:44:22.031Z,48.35
2023-03-27T15:46:56.027Z,47.62
2023-03-27T15:49:25.576Z,47.34
2023-03-27T15:51:52.240Z,48.99
2023-03-27T15:54:28.865Z,48.95
2023-03-27T15:57:09.212Z,45.89
2023-03-27T15:59:37.692Z,46.31
2023-03-27T16:02:19.915Z,46.75
2023-03-27T16:04:50.350Z,47.08
2023-03-27T16:07:17.680Z,45.84
2023-03-27T16:09:51.639Z,45.81
2023-03-27T16:12:18.713Z,44.67
2023-03-27T16:14:48.275Z,45.09
2023-03-27T16:17:14.787Z,46.17
2023-03-27T16:19:46.867Z,44.08
2023-03-27T16:22:13.538Z,43.14
2023-03-27T16:24:40.241Z,44.18
2023-03-27T16:27:06.945Z,44.40
2023-03-27T16:29:33.591Z,45.38
2023-03-27T16:32:00.356Z,46.73
2023-03-27T16:34:27.004Z,43.45
2023-03-27T16:36:53.681Z,45.36
2023-03-27T16:39:20.567Z,46.94
2023-03-27T16:41:47.232Z,44.73
2023-03-27T16:44:16.813Z,43.86
2023-03-27T16:46:43.452Z,43.74
2023-03-27T16:49:11.947Z,43.20
2023-03-27T16:51:38.575Z,43.51
2023-03-27T16:54:08.423Z,44.55
2023-03-27T16:56:35.155Z,44.77
2023-03-27T16:59:08.077Z,46.53
2023-03-27T17:01:34.767Z,47.88
2023-03-27T17:04:01.854Z,48.39
2023-03-27T17:06:28.521Z,48.85
2023-03-27T17:08:55.353Z,48.12
2023-03-27T17:11:22.351Z,47.54
2023-03-27T17:13:48.992Z,49.68
2023-03-27T17:16:15.690Z,50.51
2023-03-27T17:18:42.338Z,49.68
2023-03-27T17:21:09.028Z,51.63
2023-03-27T17:23:35.682Z,51.16
2023-03-27T17:26:03.076Z,49.80
2023-03-27T17:28:30.174Z,48.62
2023-03-27T17:31:04.416Z,50.63
2023-03-27T17:33:32.079Z,47.87
2023-03-27T17:35:58.963Z,49.83
2023-03-27T17:38:25.847Z,50.70
2023-03-27T17:40:52.557Z,51.87
2023-03-27T17:43:19.234Z,52.47
2023-03-27T17:45:45.903Z,49.61
2023-03-27T17:48:12.629Z,49.13
2023-03-27T17:50:39.368Z,47.67
2023-03-27T17:53:06.075Z,48.46
2023-03-27T17:55:32.732Z,50.67
2023-03-27T17:58:08.950Z,50.43
2023-03-27T18:00:37.385Z,50.70
2023-03-27T18:03:04.653Z,50.89
2023-03-27T18:05:36.103Z,50.54
2023-03-27T18:08:03.703Z,51.36
2023-03-27T18:10:30.466Z,51.20
2023-03-27T18:12:57.189Z,50.46
2023-03-27T18:15:23.878Z,50.86
2023-03-27T18:17:50.636Z,51.00
2023-03-27T18:20:17.304Z,52.88
2023-03-27T18:22:43.950Z,53.46
2023-03-27T18:25:10.752Z,53.64
2023-03-27T18:27:37.515Z,54.53
2023-03-27T18:30:04.385Z,53.95
2023-03-27T18:32:31.256Z,54.06
2023-03-27T18:34:57.918Z,53.22
2023-03-27T18:37:24.614Z,51.30
2023-03-27T18:39:51.297Z,51.78
2023-03-27T18:42:17.970Z,52.39
2023-03-27T18:44:44.629Z,53.94
2023-03-27T18:47:11.302Z,54.22
2023-03-27T18:49:37.945Z,52.75
2023-03-27T18:52:04.809Z,53.10
2023-03-27T18:54:31.467Z,51.97
2023-03-27T18:56:58.172Z,51.52
2023-03-27T18:59:24.966Z,51.75
2023-03-27T19:01:51.681Z,52.37
2023-03-27T19:04:19.269Z,53.20
2023-03-27T19:06:46.941Z,54.05
2023-03-27T19:09:14.200Z,53.38
2023-03-27T19:11:40.878Z,52.83
2023-03-27T19:14:07.881Z,53.22
2023-03-27T19:16:34.693Z,54.63
2023-03-27T19:19:01.514Z,54.16
